Time;durP1;ratioP1;P1;durP2;ratioP2;P2;SDS_P1;SDS_P2;PMS_P1;PMS_P2;Temp;Humidity;BMP_temperature;BMP_pressure;BME280_temperature;BME280_humidity;BME280_pressure;Samples;Min_cycle;Max_cycle;Signal;HPM_P1;HPM_P2
2022/04/21 00:00:20;;;;;;;12.30;11.10;;;;;;;2.44;70.86;94919.88;4940343;28;20272;-64
2022/04/21 00:02:45;;;;;;;12.60;11.30;;;;;;;2.28;71.24;94929.66;4944613;28;20201;-64
2022/04/21 00:05:12;;;;;;;11.53;10.33;;;;;;;2.36;71.22;94925.59;4941913;28;20229;-65
2022/04/21 00:07:38;;;;;;;11.93;10.77;;;;;;;2.26;70.97;94927.13;4943455;28;20229;-64
2022/04/21 00:10:04;;;;;;;10.93;9.83;;;;;;;2.20;70.48;94924.97;4949170;28;20231;-64
2022/04/21 00:12:30;;;;;;;11.87;10.77;;;;;;;2.22;70.47;94928.28;4979937;28;20226;-64
2022/04/21 00:14:56;;;;;;;11.20;10.10;;;;;;;2.32;69.62;94925.88;4982806;28;20209;-64
2022/04/21 00:17:22;;;;;;;11.90;10.80;;;;;;;2.24;70.13;94926.41;4972277;28;20228;-64
2022/04/21 00:19:47;;;;;;;12.13;10.90;;;;;;;2.34;71.03;94924.03;4966754;28;20224;-64
2022/04/21 00:24:56;;;;;;;12.60;11.30;;;;;;;2.38;71.73;94934.09;4965479;28;20227;-64
2022/04/21 00:27:22;;;;;;;12.30;11.20;;;;;;;2.42;71.83;94930.34;4963357;28;20216;-64
2022/04/21 00:29:48;;;;;;;13.23;11.93;;;;;;;2.33;72.19;94928.41;4967585;28;20236;-65
2022/04/21 00:32:13;;;;;;;13.60;12.27;;;;;;;2.25;72.38;94935.88;4968028;28;20259;-64
2022/04/21 00:34:39;;;;;;;13.13;11.93;;;;;;;2.29;72.58;94929.53;4937048;28;20237;-64
2022/04/21 00:37:05;;;;;;;13.50;12.10;;;;;;;2.35;72.05;94930.88;4954624;28;20232;-64
2022/04/21 00:39:33;;;;;;;13.63;12.27;;;;;;;2.34;71.95;94930.03;4962435;28;20274;-64
2022/04/21 00:42:00;;;;;;;13.90;12.20;;;;;;;2.22;72.09;94928.28;4959961;28;20211;-64
2022/04/21 00:44:27;;;;;;;13.03;11.73;;;;;;;2.30;72.18;94936.38;4953103;28;20244;-63
2022/04/21 00:46:53;;;;;;;13.17;11.80;;;;;;;2.29;71.71;94939.91;4942626;28;20237;-64
2022/04/21 00:49:21;;;;;;;12.80;11.60;;;;;;;2.34;71.72;94943.00;4953608;28;20232;-64
2022/04/21 00:51:48;;;;;;;14.23;12.47;;;;;;;2.31;71.59;94938.03;4943121;28;20248;-63
2022/04/21 00:54:14;;;;;;;15.73;12.13;;;;;;;2.18;71.94;94935.44;4947748;28;20212;-64
2022/04/21 00:56:41;;;;;;;13.67;12.37;;;;;;;2.24;72.11;94935.97;4945667;28;20212;-64
2022/04/21 00:59:09;;;;;;;15.00;13.30;;;;;;;2.13;71.93;94926.31;4935470;28;20252;-64
2022/04/21 01:04:20;;;;;;;13.17;12.03;;;;;;;2.05;72.48;94926.00;4953400;28;20290;-64
2022/04/21 01:06:46;;;;;;;13.80;12.50;;;;;;;2.05;72.06;94933.78;4960283;28;20221;-64
2022/04/21 01:09:11;;;;;;;13.67;12.40;;;;;;;1.92;72.41;94925.97;4948616;28;20276;-64
2022/04/21 01:11:38;;;;;;;13.50;12.30;;;;;;;1.97;72.84;94929.09;4944132;28;20229;-64
2022/04/21 01:14:04;;;;;;;13.93;12.63;;;;;;;2.05;72.56;94915.63;4940956;28;20233;-63
2022/04/21 01:16:30;;;;;;;14.10;12.70;;;;;;;2.09;72.58;94919.69;4946135;28;20229;-63
2022/04/21 01:18:56;;;;;;;13.77;12.57;;;;;;;2.11;71.93;94910.84;4945687;28;20232;-64
2022/04/21 01:21:22;;;;;;;13.10;11.90;;;;;;;1.97;72.34;94908.34;4945367;28;20201;-64
2022/04/21 01:23:47;;;;;;;13.70;12.37;;;;;;;2.01;72.21;94902.03;4962764;28;20224;-64
2022/04/21 01:26:15;;;;;;;14.73;12.63;;;;;;;1.99;72.64;94902.13;4946585;28;20311;-64
2022/04/21 01:28:41;;;;;;;13.73;12.20;;;;;;;1.90;72.51;94897.56;4953645;28;20295;-64
2022/04/21 01:31:07;;;;;;;13.43;12.20;;;;;;;1.91;72.51;94881.06;4943670;28;20232;-63
2022/04/21 01:33:32;;;;;;;13.93;12.63;;;;;;;2.00;72.89;94882.19;4948666;28;20247;-64
2022/04/21 01:35:57;;;;;;;13.00;11.90;;;;;;;2.04;72.25;94878.47;4946951;28;20208;-63
2022/04/21 01:41:09;;;;;;;14.63;13.27;;;;;;;2.15;71.68;94869.97;4944578;28;20235;-63
2022/04/21 01:43:40;;;;;;;15.20;13.63;;;;;;;2.26;71.22;94872.66;4960731;28;20233;-63
2022/04/21 01:46:06;;;;;;;15.17;13.77;;;;;;;2.19;71.45;94874.84;4957798;28;20331;-65
2022/04/21 01:48:31;;;;;;;15.13;13.63;;;;;;;2.19;71.49;94871.41;4953111;28;20227;-64
2022/04/21 01:50:57;;;;;;;14.83;13.40;;;;;;;2.22;71.40;94873.81;4949242;28;20212;-64
2022/04/21 01:53:22;;;;;;;14.03;12.73;;;;;;;2.28;71.13;94875.16;4940171;28;20225;-64
2022/04/21 01:55:48;;;;;;;14.13;12.70;;;;;;;2.28;71.19;94875.97;4955650;28;20228;-64
2022/04/21 01:58:14;;;;;;;15.27;13.87;;;;;;;2.25;71.14;94870.19;4964790;28;20319;-65
2022/04/21 02:00:40;;;;;;;14.87;13.37;;;;;;;2.12;71.78;94868.41;4945270;28;20221;-64
2022/04/21 02:03:06;;;;;;;14.67;13.27;;;;;;;2.07;72.45;94873.09;4941432;28;20206;-64
2022/04/21 02:05:31;;;;;;;14.80;13.40;;;;;;;2.05;72.65;94867.16;4943756;28;20231;-64
2022/04/21 02:07:57;;;;;;;14.83;13.23;;;;;;;2.04;72.84;94875.06;4943660;28;20323;-64
2022/04/21 02:10:23;;;;;;;14.67;13.17;;;;;;;1.95;73.00;94858.34;4942577;28;20323;-64
2022/04/21 02:12:49;;;;;;;15.53;14.03;;;;;;;1.99;73.53;94858.03;4947720;28;20225;-64
2022/04/21 02:15:17;;;;;;;15.17;13.73;;;;;;;1.96;73.32;94850.47;4955165;28;20298;-64
2022/04/21 02:17:44;;;;;;;16.53;14.77;;;;;;;1.96;73.88;94857.41;4960182;28;20213;-64
2022/04/21 02:20:14;;;;;;;16.23;14.63;;;;;;;1.89;73.20;94857.00;4948542;28;20232;-63
2022/04/21 02:22:40;;;;;;;16.47;13.60;;;;;;;1.72;73.60;94858.13;4940214;28;20226;-63
2022/04/21 02:25:07;;;;;;;17.27;14.40;;;;;;;1.65;74.13;94859.47;4953235;28;20226;-63
2022/04/21 02:27:34;;;;;;;20.90;14.10;;;;;;;1.67;74.25;94854.19;4954126;28;20215;-63
2022/04/21 02:29:59;;;;;;;16.63;13.93;;;;;;;1.57;74.66;94864.31;4963779;28;20244;-64
2022/04/21 02:32:25;;;;;;;19.10;14.73;;;;;;;1.56;74.81;94864.44;4967857;28;20229;-63
2022/04/21 02:34:53;;;;;;;15.57;13.97;;;;;;;1.61;74.75;94857.19;4935656;28;20239;-63
2022/04/21 02:37:19;;;;;;;16.23;13.67;;;;;;;1.49;74.89;94861.41;4946643;28;20244;-63
2022/04/21 02:39:44;;;;;;;14.97;13.47;;;;;;;1.50;74.95;94866.50;4939934;28;20237;-63
2022/04/21 02:42:09;;;;;;;16.23;14.20;;;;;;;1.50;74.97;94865.69;4945280;28;20220;-63
2022/04/21 02:44:37;;;;;;;16.67;13.83;;;;;;;1.49;74.70;94879.53;4949354;28;20233;-63
2022/04/21 02:47:05;;;;;;;16.40;13.83;;;;;;;1.40;75.03;94874.97;4953459;28;20228;-63
2022/04/21 02:49:32;;;;;;;15.53;13.97;;;;;;;1.39;75.31;94881.91;4948736;28;20224;-63
2022/04/21 02:51:58;;;;;;;15.57;14.07;;;;;;;1.48;75.02;94868.34;4947656;28;20279;-63
2022/04/21 02:57:20;;;;;;;16.07;14.57;;;;;;;1.44;74.34;94872.06;4940020;28;20220;-63
2022/04/21 02:59:50;;;;;;;15.70;14.10;;;;;;;1.37;74.97;94875.19;4968455;28;20372;-62
2022/04/21 03:02:17;;;;;;;18.53;13.97;;;;;;;1.40;74.60;94878.38;4956402;28;20225;-63
2022/04/21 03:04:42;;;;;;;16.57;14.83;;;;;;;1.43;75.01;94877.34;4964050;28;20307;-65
2022/04/21 03:07:08;;;;;;;16.00;14.50;;;;;;;1.52;74.50;94871.56;4954436;28;20243;-63
2022/04/21 03:09:33;;;;;;;17.43;15.57;;;;;;;1.43;74.76;94882.53;4950967;28;20231;-63
2022/04/21 03:12:03;;;;;;;16.03;14.43;;;;;;;1.44;74.62;94889.38;4945185;28;20227;-63
2022/04/21 03:14:28;;;;;;;19.23;14.53;;;;;;;1.32;74.71;94884.06;4943916;28;20225;-63
2022/04/21 03:16:54;;;;;;;16.97;15.20;;;;;;;1.25;75.30;94875.00;4953773;28;20287;-64
2022/04/21 03:19:19;;;;;;;19.90;15.20;;;;;;;1.30;75.30;94872.97;4952485;28;20228;-63
2022/04/21 03:24:30;;;;;;;21.70;15.53;;;;;;;1.30;74.80;94865.19;4949729;28;20223;-64
2022/04/21 03:26:56;;;;;;;15.93;14.13;;;;;;;1.34;74.93;94871.03;4953590;28;20380;-64
2022/04/21 03:29:21;;;;;;;16.37;14.57;;;;;;;1.50;74.29;94881.22;4950898;28;20335;-64
2022/04/21 03:31:48;;;;;;;16.80;15.00;;;;;;;1.51;74.06;94869.91;4955511;28;20229;-64
2022/04/21 03:34:19;;;;;;;16.87;15.10;;;;;;;1.48;74.25;94876.13;4946095;28;20295;-64
2022/04/21 03:36:49;;;;;;;16.60;14.90;;;;;;;1.57;73.96;94866.09;4944656;28;20229;-64
2022/04/21 03:39:15;;;;;;;18.03;14.53;;;;;;;1.53;73.85;94871.47;4942851;28;20276;-63
2022/04/21 03:41:41;;;;;;;16.27;14.53;;;;;;;1.32;74.26;94865.94;4947900;28;20210;-64
2022/04/21 03:44:06;;;;;;;15.77;14.10;;;;;;;1.44;74.47;94861.69;4945791;28;20314;-64
2022/04/21 03:46:32;;;;;;;15.63;13.73;;;;;;;1.55;74.13;94868.75;4945518;28;20252;-63
2022/04/21 03:48:58;;;;;;;15.13;13.57;;;;;;;1.60;73.47;94869.28;4954827;28;20239;-63
2022/04/21 03:51:27;;;;;;;15.77;13.50;;;;;;;1.67;72.51;94865.38;4957036;28;20213;-63
2022/04/21 03:53:54;;;;;;;15.23;13.73;;;;;;;1.68;72.16;94855.84;4961344;28;20213;-63
2022/04/21 03:56:20;;;;;;;15.67;14.00;;;;;;;1.79;72.16;94860.31;4967522;28;20235;-63
2022/04/21 03:58:46;;;;;;;15.53;13.93;;;;;;;1.81;71.67;94872.22;4949045;28;20249;-63
2022/04/21 04:01:11;;;;;;;14.73;13.33;;;;;;;1.96;71.50;94878.16;4946983;28;20243;-63
2022/04/21 04:03:37;;;;;;;16.37;14.67;;;;;;;1.91;71.16;94875.06;4963521;28;20247;-64
2022/04/21 04:06:03;;;;;;;16.90;15.20;;;;;;;1.88;71.37;94880.44;4950648;28;20221;-64
2022/04/21 04:11:12;;;;;;;16.03;14.33;;;;;;;1.94;71.90;94872.25;4941519;28;20232;-63
2022/04/21 04:13:37;;;;;;;18.97;16.50;;;;;;;1.84;72.06;94877.22;4962311;28;20237;-63
2022/04/21 04:16:03;;;;;;;17.23;15.40;;;;;;;1.86;72.39;94880.53;4943812;28;20288;-63
2022/04/21 04:18:29;;;;;;;16.53;14.93;;;;;;;1.99;72.08;94871.00;4952171;28;20216;-62
2022/04/21 04:20:55;;;;;;;17.23;15.43;;;;;;;2.14;71.62;94876.94;4953949;28;20208;-63
2022/04/21 04:23:21;;;;;;;16.70;15.00;;;;;;;2.21;71.83;94875.56;4947416;28;20236;-63
2022/04/21 04:25:47;;;;;;;16.27;14.30;;;;;;;2.21;71.81;94872.13;4954416;28;20229;-63
2022/04/21 04:28:13;;;;;;;16.93;15.13;;;;;;;2.26;72.16;94866.66;4945406;28;20243;-63
2022/04/21 04:30:39;;;;;;;16.47;14.87;;;;;;;2.29;72.03;94869.03;4943227;28;20224;-63
2022/04/21 04:33:08;;;;;;;15.87;14.37;;;;;;;2.25;72.19;94860.63;4952211;28;20406;-64
2022/04/21 04:35:34;;;;;;;18.70;15.53;;;;;;;2.33;72.06;94855.75;4953007;28;20224;-64
2022/04/21 04:38:00;;;;;;;17.50;15.83;;;;;;;2.35;72.00;94855.63;4951925;28;20220;-63
2022/04/21 04:40:26;;;;;;;16.73;15.13;;;;;;;2.34;72.41;94852.19;4950700;28;20235;-63
2022/04/21 04:42:55;;;;;;;18.37;16.50;;;;;;;2.50;71.90;94859.75;4956784;28;20225;-63
2022/04/21 04:48:06;;;;;;;18.37;16.47;;;;;;;2.54;71.83;94863.81;4950674;28;20210;-63
2022/04/21 04:50:31;;;;;;;18.53;16.27;;;;;;;2.59;71.76;94869.50;4941920;28;20232;-63
2022/04/21 04:53:00;;;;;;;20.23;17.23;;;;;;;2.69;72.13;94876.66;4951732;28;20226;-63
2022/04/21 04:55:27;;;;;;;18.17;16.27;;;;;;;2.75;71.64;94876.19;4948822;28;20243;-64
2022/04/21 04:57:52;;;;;;;19.07;16.73;;;;;;;2.83;71.45;94876.50;4939706;28;20224;-64
2022/04/21 05:00:18;;;;;;;18.63;16.70;;;;;;;2.91;70.63;94886.34;4955013;28;20220;-64
2022/04/21 05:02:44;;;;;;;17.77;16.07;;;;;;;3.05;70.12;94884.44;4949032;28;20211;-64
2022/04/21 05:05:11;;;;;;;16.43;14.83;;;;;;;3.03;69.21;94881.13;4953795;28;20215;-63
2022/04/21 05:07:39;;;;;;;15.43;13.40;;;;;;;3.04;68.48;94876.75;4937317;28;20255;-64
2022/04/21 05:10:06;;;;;;;14.90;13.50;;;;;;;3.12;67.93;94876.19;4952522;28;20228;-63
2022/04/21 05:12:31;;;;;;;13.50;12.20;;;;;;;3.19;67.87;94877.44;4942360;28;20220;-65
2022/04/21 05:14:57;;;;;;;13.30;11.90;;;;;;;3.29;66.52;94886.22;4942404;28;20259;-67
2022/04/21 05:17:22;;;;;;;12.30;11.03;;;;;;;3.31;66.54;94884.31;4950858;28;20235;-66
2022/04/21 05:19:48;;;;;;;12.37;11.17;;;;;;;3.39;66.59;94895.00;4950365;28;20245;-68
2022/04/21 05:22:16;;;;;;;12.40;11.10;;;;;;;3.45;66.09;94898.94;4950038;28;20220;-67
2022/04/21 05:24:46;;;;;;;13.37;12.03;;;;;;;3.47;65.92;94903.06;4944544;28;20276;-67
2022/04/21 05:27:12;;;;;;;13.23;11.93;;;;;;;3.36;66.19;94899.59;4948447;28;20275;-67
2022/04/21 05:32:26;;;;;;;15.77;14.33;;;;;;;3.63;66.41;94896.75;4943587;28;20243;-67
2022/04/21 05:34:52;;;;;;;17.27;15.27;;;;;;;3.74;66.26;94894.19;4954200;28;20232;-66
2022/04/21 05:37:18;;;;;;;15.67;14.07;;;;;;;3.89;66.08;94897.44;4942585;28;20267;-66
2022/04/21 05:39:44;;;;;;;15.93;14.43;;;;;;;3.92;65.30;94889.38;4926470;28;20256;-67
2022/04/21 05:42:18;;;;;;;17.20;15.60;;;;;;;3.88;65.62;94891.41;4946199;28;20215;-65
2022/04/21 05:44:44;;;;;;;17.30;15.70;;;;;;;4.05;65.83;94891.91;4955767;28;20227;-63
2022/04/21 05:47:10;;;;;;;18.87;16.87;;;;;;;4.16;65.67;94879.72;4960718;28;20231;-63
2022/04/21 05:49:36;;;;;;;18.47;16.60;;;;;;;4.20;65.18;94877.75;4947177;28;20320;-64
2022/04/21 05:52:02;;;;;;;20.40;16.57;;;;;;;4.26;65.29;94887.69;4946205;28;20237;-64
2022/04/21 05:54:27;;;;;;;18.93;17.10;;;;;;;4.23;66.31;94882.72;4961780;28;20217;-62
2022/04/21 05:56:53;;;;;;;20.20;18.10;;;;;;;4.30;65.28;94870.88;4946531;28;20250;-62
2022/04/21 05:59:18;;;;;;;19.80;17.70;;;;;;;4.33;65.31;94882.81;4928998;28;20226;-63
2022/04/21 06:01:44;;;;;;;19.07;17.17;;;;;;;4.54;64.99;94888.16;4950564;28;20247;-68
2022/04/21 06:04:09;;;;;;;18.57;16.77;;;;;;;4.51;64.72;94883.19;4937342;28;20231;-63
2022/04/21 06:06:35;;;;;;;19.30;17.33;;;;;;;4.55;65.00;94863.81;4948404;28;20308;-63
2022/04/21 06:09:00;;;;;;;19.83;17.93;;;;;;;4.60;64.88;94872.91;4944039;28;20212;-63
2022/04/21 06:11:27;;;;;;;20.47;18.47;;;;;;;4.49;65.04;94866.84;4948952;28;20270;-63
2022/04/21 06:13:53;;;;;;;21.20;19.10;;;;;;;4.64;64.68;94868.28;4942010;28;20297;-63
2022/04/21 06:16:18;;;;;;;21.27;19.10;;;;;;;4.69;65.33;94876.56;4955144;28;20239;-63
2022/04/21 06:18:44;;;;;;;24.53;20.27;;;;;;;4.78;64.41;94880.22;4956786;28;20252;-63
2022/04/21 06:21:10;;;;;;;20.10;18.10;;;;;;;4.79;64.26;94881.91;4951030;28;20206;-63
2022/04/21 06:23:35;;;;;;;19.90;17.90;;;;;;;4.82;64.15;94881.66;4942868;28;20235;-65
2022/04/21 06:26:03;;;;;;;19.97;18.03;;;;;;;4.76;64.58;94882.97;4947144;28;20270;-63
2022/04/21 06:28:29;;;;;;;20.43;18.43;;;;;;;4.80;64.36;94886.16;4948837;28;20240;-63
2022/04/21 06:30:55;;;;;;;21.17;19.07;;;;;;;4.85;64.39;94871.81;4951822;28;20237;-65
2022/04/21 06:33:21;;;;;;;21.17;19.17;;;;;;;5.02;64.00;94880.91;4950013;28;20219;-63
2022/04/21 06:35:47;;;;;;;21.77;17.70;;;;;;;5.09;63.49;94882.06;4944000;28;20352;-64
2022/04/21 06:38:13;;;;;;;19.17;17.10;;;;;;;5.20;63.09;94878.63;4942721;28;20229;-63
2022/04/21 06:40:39;;;;;;;21.23;16.33;;;;;;;5.16;63.68;94878.97;4942745;28;20221;-65
2022/04/21 06:48:01;;;;;;;21.37;18.20;;;;;;;5.37;62.65;94882.47;4940679;28;20573;-63
2022/04/21 06:48:37;;;;;;;18.03;16.13;;;;;;;5.53;62.55;94874.25;4939012;28;20993;-63
2022/04/21 06:51:02;;;;;;;18.50;16.50;;;;;;;5.52;61.41;94876.03;4936336;28;20208;-64
2022/04/21 06:53:29;;;;;;;17.77;16.07;;;;;;;5.64;61.48;94871.59;4948083;28;20240;-62
2022/04/21 06:55:55;;;;;;;18.07;16.27;;;;;;;5.70;61.74;94868.50;4935207;28;20224;-65
2022/04/21 06:58:20;;;;;;;16.43;14.80;;;;;;;5.83;60.99;94862.28;4937937;28;20292;-64
2022/04/21 07:00:47;;;;;;;18.07;16.37;;;;;;;5.91;60.96;94870.28;4950105;28;20216;-63
2022/04/21 07:03:12;;;;;;;18.53;16.73;;;;;;;6.11;61.10;94871.28;4941315;28;20198;-63
2022/04/21 07:05:38;;;;;;;17.03;15.43;;;;;;;6.22;60.81;94865.16;4945951;28;20229;-65
2022/04/21 07:08:04;;;;;;;17.27;15.67;;;;;;;6.26;59.00;94864.78;4956701;28;20291;-66
2022/04/21 07:10:29;;;;;;;17.47;15.73;;;;;;;6.14;59.72;94861.38;4955020;28;20309;-67
2022/04/21 07:12:55;;;;;;;18.27;14.57;;;;;;;6.23;59.79;94866.78;4940475;28;20237;-65
2022/04/21 07:15:20;;;;;;;14.60;12.23;;;;;;;6.32;58.60;94868.66;4953245;28;20202;-64
2022/04/21 07:17:45;;;;;;;13.60;12.37;;;;;;;6.46;58.09;94870.09;4938537;28;20213;-68
2022/04/21 07:20:12;;;;;;;15.93;12.40;;;;;;;6.46;57.71;94867.47;4945570;28;20240;-66
2022/04/21 07:22:39;;;;;;;13.43;12.13;;;;;;;6.61;57.76;94880.06;4951799;28;20239;-66
2022/04/21 07:25:08;;;;;;;14.43;13.13;;;;;;;6.70;56.53;94882.84;4945607;28;20239;-64
2022/04/21 07:27:33;;;;;;;14.53;13.23;;;;;;;6.65;56.68;94879.78;4962110;28;20213;-63
2022/04/21 07:30:00;;;;;;;14.67;13.27;;;;;;;6.80;56.72;94881.91;4967265;28;20235;-66
2022/04/21 07:32:25;;;;;;;15.83;14.23;;;;;;;6.81;56.92;94895.81;4945459;28;20238;-67
2022/04/21 07:34:51;;;;;;;15.43;13.97;;;;;;;6.93;56.65;94894.75;4938668;28;20284;-66
2022/04/21 07:37:16;;;;;;;15.50;14.00;;;;;;;7.05;56.46;94893.69;4946188;28;20311;-66
2022/04/21 07:39:42;;;;;;;16.27;14.57;;;;;;;7.16;55.57;94894.53;4948162;28;20225;-66
2022/04/21 07:42:09;;;;;;;15.93;14.37;;;;;;;7.16;56.33;94900.59;4950610;28;20238;-67
2022/04/21 07:44:35;;;;;;;13.07;11.87;;;;;;;7.34;55.43;94903.41;4944440;28;20232;-62
2022/04/21 07:47:01;;;;;;;12.37;11.03;;;;;;;7.45;55.14;94892.81;4951719;28;20252;-61
2022/04/21 07:49:45;;;;;;;11.97;10.77;;;;;;;7.43;54.00;94889.53;4963174;28;20236;-65
2022/04/21 07:55:05;;;;;;;14.20;11.47;;;;;;;7.72;52.43;94891.31;4943738;28;20271;-65
2022/04/21 07:57:30;;;;;;;11.60;10.53;;;;;;;7.67;52.53;94899.59;4948948;28;20232;-65
2022/04/21 07:59:56;;;;;;;13.20;11.90;;;;;;;7.66;52.90;94891.88;4945064;28;20204;-64
2022/04/21 08:02:21;;;;;;;12.50;11.40;;;;;;;7.78;52.35;94879.47;4960604;28;20275;-66
2022/04/21 08:04:47;;;;;;;13.03;11.33;;;;;;;7.79;52.51;94887.19;4950697;28;20229;-65
2022/04/21 08:07:13;;;;;;;14.33;12.97;;;;;;;7.91;52.53;94887.88;4947261;28;20292;-64
2022/04/21 08:09:38;;;;;;;15.73;13.17;;;;;;;8.13;52.28;94884.16;4961618;28;20236;-65
2022/04/21 08:12:04;;;;;;;13.70;12.43;;;;;;;8.23;51.75;94886.72;4946698;28;20224;-65
2022/04/21 08:14:30;;;;;;;16.10;12.77;;;;;;;8.37;51.08;94875.84;4945356;28;20224;-65
2022/04/21 08:16:56;;;;;;;13.77;12.47;;;;;;;8.18;51.62;94885.38;4947010;28;20306;-65
2022/04/21 08:19:21;;;;;;;14.53;13.03;;;;;;;8.44;50.74;94883.97;4950419;28;20248;-64
2022/04/21 08:21:50;;;;;;;15.10;13.43;;;;;;;8.51;50.49;94883.25;4948960;28;20253;-64
2022/04/21 08:32:35;;;;;;;14.57;13.07;;;;;;;8.81;50.75;94876.94;4962062;28;20309;-63
2022/04/21 08:35:01;;;;;;;14.30;12.90;;;;;;;9.00;51.00;94880.44;4961861;28;20220;-63
2022/04/21 08:37:27;;;;;;;14.87;13.37;;;;;;;8.64;50.55;94872.47;4958363;28;20217;-63
2022/04/21 08:39:53;;;;;;;14.57;13.23;;;;;;;9.09;50.06;94882.22;4949083;28;20221;-63
2022/04/21 08:42:20;;;;;;;16.37;13.80;;;;;;;9.21;49.97;94880.22;4943922;28;20247;-63
2022/04/21 08:44:48;;;;;;;16.30;13.13;;;;;;;9.09;50.37;94868.25;4940268;28;20205;-64
2022/04/21 08:47:18;;;;;;;15.10;13.57;;;;;;;8.35;50.89;94878.59;4946203;28;20228;-65
2022/04/21 08:49:47;;;;;;;16.30;14.40;;;;;;;8.65;51.08;94887.22;4945790;28;20369;-63
2022/04/21 08:52:15;;;;;;;16.27;14.77;;;;;;;9.03;50.21;94882.78;4947665;28;20295;-65
2022/04/21 08:54:41;;;;;;;15.37;13.87;;;;;;;9.02;49.66;94865.41;4951208;28;20232;-64
2022/04/21 08:57:09;;;;;;;16.07;14.37;;;;;;;9.19;49.32;94866.41;4962967;28;20217;-64
2022/04/21 08:59:34;;;;;;;15.83;13.53;;;;;;;9.36;49.57;94865.63;4957005;28;20243;-67
2022/04/21 09:02:00;;;;;;;16.90;14.23;;;;;;;9.45;49.53;94862.09;4942844;28;20228;-66
2022/04/21 09:04:26;;;;;;;15.93;14.30;;;;;;;9.53;48.71;94853.50;4957842;28;20224;-65
2022/04/21 09:06:51;;;;;;;17.50;15.80;;;;;;;9.70;49.04;94854.47;4943964;28;20473;-66
2022/04/21 09:09:22;;;;;;;15.60;14.10;;;;;;;9.44;48.78;94865.72;4944000;28;20241;-66
2022/04/21 09:11:52;;;;;;;16.47;14.77;;;;;;;9.58;49.01;94859.13;4948010;28;20283;-66
2022/04/21 09:14:19;;;;;;;16.30;14.70;;;;;;;9.72;48.34;94855.13;4963816;28;20224;-63
2022/04/21 09:16:46;;;;;;;19.83;16.17;;;;;;;9.92;48.92;94850.56;4952487;28;20401;-63
2022/04/21 09:19:13;;;;;;;17.13;15.47;;;;;;;10.09;48.17;94857.59;4943948;28;20320;-65
2022/04/21 09:21:40;;;;;;;15.63;13.93;;;;;;;9.93;48.28;94849.56;4945779;28;20257;-62
2022/04/21 09:24:19;;;;;;;18.23;15.07;;;;;;;9.90;48.28;94853.34;4941688;28;20196;-64
2022/04/21 09:26:45;;;;;;;16.27;14.27;;;;;;;9.94;47.67;94851.22;4961682;28;20256;-63
2022/04/21 09:29:24;;;;;;;15.70;13.93;;;;;;;9.87;47.94;94864.16;4958452;28;20293;-64
2022/04/21 09:31:58;;;;;;;15.63;14.17;;;;;;;9.87;47.70;94856.25;4945877;28;20237;-64
2022/04/21 09:34:25;;;;;;;16.67;13.37;;;;;;;10.07;47.89;94858.72;4940492;28;20316;-64
2022/04/21 09:36:53;;;;;;;15.40;13.77;;;;;;;10.21;47.52;94846.81;4953868;28;20233;-64
2022/04/21 09:39:19;;;;;;;15.77;13.97;;;;;;;10.30;46.92;94857.28;4957572;28;20226;-64
2022/04/21 09:41:44;;;;;;;15.83;14.23;;;;;;;10.01;47.74;94852.28;4945396;28;20573;-64
2022/04/21 09:46:58;;;;;;;16.60;14.90;;;;;;;10.36;47.91;94855.84;4944935;28;20236;-64
2022/04/21 09:49:34;;;;;;;18.80;14.93;;;;;;;10.43;47.52;94851.63;4952582;28;20220;-63
2022/04/21 09:52:00;;;;;;;17.13;14.87;;;;;;;10.54;47.31;94848.72;4956351;28;20236;-64
2022/04/21 09:54:29;;;;;;;17.23;15.50;;;;;;;10.60;47.06;94855.97;4944129;28;20220;-64
2022/04/21 09:56:56;;;;;;;15.40;13.80;;;;;;;10.58;46.53;94855.34;4945751;28;20222;-64
2022/04/21 09:59:22;;;;;;;17.73;15.07;;;;;;;10.52;47.02;94852.50;4958968;28;20229;-64
2022/04/21 10:01:50;;;;;;;17.47;15.67;;;;;;;10.59;46.68;94851.72;4949689;28;20232;-64
2022/04/21 10:04:19;;;;;;;17.40;15.13;;;;;;;10.64;46.87;94848.63;4940822;28;20248;-64
2022/04/21 10:06:46;;;;;;;15.90;14.30;;;;;;;10.67;47.05;94850.13;4947139;28;20240;-64
2022/04/21 10:09:13;;;;;;;17.10;15.50;;;;;;;10.64;47.55;94847.78;4936038;29;20217;-64
2022/04/21 10:11:44;;;;;;;17.10;15.43;;;;;;;10.47;47.04;94839.81;4939495;28;20244;-64
2022/04/21 10:14:12;;;;;;;15.33;13.73;;;;;;;10.62;46.63;94849.75;4942013;28;20245;-64
2022/04/21 10:16:42;;;;;;;19.97;15.70;;;;;;;10.63;47.26;94839.06;4956376;28;20236;-64
2022/04/21 10:19:09;;;;;;;17.67;15.97;;;;;;;10.98;46.39;94835.44;4945412;28;20240;-64
2022/04/21 10:21:39;;;;;;;18.10;16.27;;;;;;;11.10;45.83;94829.91;4970102;28;20235;-64
2022/04/21 10:24:06;;;;;;;17.30;15.50;;;;;;;11.08;46.37;94835.31;4973418;28;20205;-64
2022/04/21 10:26:44;;;;;;;17.73;15.87;;;;;;;11.04;46.56;94831.38;4959241;28;20274;-64
2022/04/21 10:29:13;;;;;;;16.23;14.47;;;;;;;11.17;46.37;94839.66;4962065;28;20247;-64
2022/04/21 10:31:45;;;;;;;17.30;15.50;;;;;;;11.17;46.30;94838.81;4962874;28;20223;-64
2022/04/21 10:34:31;;;;;;;17.57;15.67;;;;;;;11.22;46.88;94836.50;4967473;28;20224;-63
2022/04/21 10:37:13;;;;;;;16.77;14.43;;;;;;;11.47;47.20;94834.78;4960906;28;20239;-62
2022/04/21 10:39:40;;;;;;;17.00;13.73;;;;;;;11.42;46.58;94826.53;4968804;28;20267;-64
2022/04/21 10:42:18;;;;;;;15.70;14.20;;;;;;;11.43;46.26;94826.38;4969069;28;20208;-64
2022/04/21 10:44:43;;;;;;;22.93;15.37;;;;;;;11.44;46.79;94824.56;4956812;28;20225;-64
2022/04/21 10:47:33;;;;;;;19.13;14.90;;;;;;;11.36;47.19;94829.81;4943719;28;20237;-62
2022/04/21 10:50:12;;;;;;;16.67;14.77;;;;;;;11.07;46.82;94828.44;4953783;28;20229;-62
2022/04/21 10:57:49;;;;;;;17.53;15.33;;;;;;;10.94;48.29;94826.25;4943939;28;20240;-64
2022/04/21 11:00:31;;;;;;;21.97;15.33;;;;;;;11.36;47.30;94828.03;4960851;28;20216;-62
2022/04/21 11:03:05;;;;;;;16.70;14.97;;;;;;;11.76;46.96;94828.22;4953055;28;20200;-61
2022/04/21 11:05:40;;;;;;;17.33;13.80;;;;;;;11.88;46.25;94814.59;4964318;28;20249;-64
2022/04/21 11:08:14;;;;;;;17.90;14.40;;;;;;;12.13;46.02;94815.44;4957036;28;20232;-62
2022/04/21 11:10:43;;;;;;;17.57;15.07;;;;;;;12.41;45.52;94814.25;4944591;28;20217;-64
2022/04/21 11:13:13;;;;;;;14.83;13.33;;;;;;;12.49;46.10;94814.22;4952618;28;20709;-64
2022/04/21 11:15:45;;;;;;;18.43;12.97;;;;;;;12.48;46.18;94820.47;4979877;28;20240;-64
2022/04/21 11:18:20;;;;;;;15.30;13.67;;;;;;;12.60;44.93;94813.84;4968553;28;20215;-65
2022/04/21 11:20:47;;;;;;;15.43;13.90;;;;;;;12.37;45.06;94819.00;4962214;28;20235;-62
2022/04/21 11:23:31;;;;;;;17.77;12.97;;;;;;;12.22;45.81;94826.78;4958760;28;20232;-63
2022/04/21 11:26:08;;;;;;;14.73;13.30;;;;;;;12.27;45.95;94821.84;4961176;28;20231;-63
2022/04/21 11:28:33;;;;;;;14.67;13.30;;;;;;;12.67;45.65;94822.75;4945736;28;20249;-65
2022/04/21 11:31:01;;;;;;;14.10;12.33;;;;;;;12.77;43.81;94812.81;4949244;28;20321;-64
2022/04/21 11:33:27;;;;;;;15.73;13.43;;;;;;;12.50;44.99;94811.41;4951334;28;20229;-62
2022/04/21 11:36:09;;;;;;;15.07;13.30;;;;;;;13.03;45.34;94817.00;4958816;28;20284;-62
2022/04/21 11:38:39;;;;;;;15.00;12.03;;;;;;;13.49;43.40;94811.84;4953115;28;20666;-62
2022/04/21 11:41:07;;;;;;;14.73;12.80;;;;;;;13.79;42.82;94798.75;4957167;28;20233;-62
2022/04/21 11:43:33;;;;;;;14.27;12.88;;;;;;;14.16;41.89;94813.81;4942149;28;20237;-66
2022/04/21 11:46:09;;;;;;;13.63;12.27;;;;;;;14.39;41.84;94805.84;4960646;28;20229;-65
2022/04/21 11:48:40;;;;;;;12.95;11.73;;;;;;;13.97;42.10;94801.09;4941205;28;20238;-66
2022/04/21 11:51:06;;;;;;;13.88;12.50;;;;;;;14.18;41.42;94795.16;4942084;28;20213;-66
2022/04/21 11:53:36;;;;;;;16.13;12.27;;;;;;;14.21;41.12;94792.94;4947353;28;20302;-66
2022/04/21 11:56:02;;;;;;;13.83;12.07;;;;;;;14.73;41.67;94789.50;4943566;28;20228;-66
2022/04/21 11:58:34;;;;;;;14.93;11.20;;;;;;;14.77;41.22;94782.00;4945628;28;20286;-66
2022/04/21 12:07:03;;;;;;;14.43;11.23;;;;;;;14.48;41.53;94778.31;4951992;28;20336;-67
2022/04/21 12:09:35;;;;;;;12.60;11.40;;;;;;;14.29;41.39;94776.19;4948854;28;20259;-65
2022/04/21 12:12:03;;;;;;;11.67;10.57;;;;;;;14.11;42.25;94768.59;4935967;28;20208;-65
2022/04/21 12:14:30;;;;;;;11.13;10.03;;;;;;;13.85;41.44;94771.63;4944326;28;20228;-65